This is the latest recevied weather packets stored in our database for station/object N7WGJ. If no packets are shown the sender has not sent any weather packets the latest 10 day(s).
| Time | Temp. | Humidity | Pressure | Rain* | Wind** | Luminosity | Snow |
|---|---|---|---|---|---|---|---|
| 1777747884 | 17.22° C | 75% | 1016.9 hPa | 0 mm | - | - | - |
| 1777747284 | 16.67° C | 76% | 1017 hPa | 0 mm | - | - | - |
| 1777746687 | 16.11° C | 77% | 1017.1 hPa | 0 mm | - | - | - |
| 1777746087 | 16.11° C | 77% | 1017.3 hPa | 0 mm | - | - | - |
| 1777745487 | 15.56° C | 78% | 1017.3 hPa | 0 mm | - | - | - |
| 1777744898 | 15.56° C | 79% | 1017.3 hPa | 0 mm | - | - | - |
| 1777744287 | 15° C | 80% | 1017.4 hPa | 0 mm | - | - | - |
| 1777743685 | 13.89° C | 82% | 1017.4 hPa | 0 mm | - | - | - |
| 1777743085 | 13.89° C | 83% | 1017.4 hPa | 0 mm | - | - | - |
| 1777742487 | 13.89° C | 84% | 1017.4 hPa | 0 mm | - | - | - |
| 1777741888 | 13.33° C | 84% | 1017.5 hPa | 0 mm | - | - | - |
| 1777741308 | 13.33° C | 84% | 1017.5 hPa | 0 mm | - | - | - |
| 1777740700 | 13.33° C | 84% | 1017.5 hPa | 0 mm | - | - | - |
| 1777740102 | 12.78° C | 89% | 1017.3 hPa | 0 mm | - | - | - |
| 1777739483 | 12.22° C | 92% | 1017.5 hPa | 0 mm | - | - | - |
| 1777738883 | 11.67° C | 94% | 1017.5 hPa | 0 mm | - | - | - |
| 1777738284 | 11.11° C | 94% | 1017.5 hPa | 0 mm | - | - | - |
| 1777737703 | 10.56° C | 95% | 1017.7 hPa | 0 mm | - | - | - |
| 1777737099 | 10.56° C | 94% | 1017.6 hPa | 0 mm | - | - | - |
| 1777736497 | 10.56° C | 94% | 1017.6 hPa | 0 mm | - | - | - |
| 1777735900 | 10° C | 95% | 1017.5 hPa | 0 mm | - | - | - |
| 1777735304 | 10° C | 95% | 1017.7 hPa | 0 mm | - | - | - |
| 1777734684 | 10° C | 95% | 1017.6 hPa | 0 mm | - | - | - |
| 1777734103 | 10° C | 95% | 1017.5 hPa | 0 mm | - | - | - |
| 1777733493 | 10° C | 95% | 1017.4 hPa | 0 mm | - | - | - |
* Rain latest hour (hover to see other rain measurements)
** Current wind speed in m/s (hover to see current wind gust speed)